14 de agosto de 2022

Hora Código Clima Temp. Visibilidade Tecto Vento METAR/SPECI
08:00
L
25 °C 0 m 1.000 ft Var Var 2 kt METAR AYPY 132200Z VRB02KT 500M SHRA SCT005 OVC010 25/24 Q1011
07:30
L
25 °C 0 m 1.000 ft 160° 160° 5 kt METAR AYPY 132130Z 16005KT 1000M SHRA SCT007 OVC010 25/24 Q1011
07:00
L
25 °C 0 m 2.500 ft 160° 160° 5 kt METAR AYPY 132100Z 16005KT 3000M RA BKN025 25/24 Q1010
06:00
M
25 °C 10 km+ 2.500 ft 160° 160° 5 kt METAR AYPY 132000Z 16005KT 9999 FUHZ FEW010 BKN025 25/24 Q1010
04:00
V
25 °C 10 km+ 3.000 ft 180° 180° 3 kt METAR AYPY 131800Z 18003KT 9999 SCT020 BKN030 25/24 Q1009
03:00
V
25 °C 10 km+ 5.000 ft 140° 140° 7 kt METAR AYPY 131700Z 14007KT 9999 SCT030 OVC050 25/24 Q1009
02:00
V
26 °C 10 km+ - 160° 160° 7 kt METAR AYPY 131600Z 16007KT 9999 FEW015 SCT050 26/24 Q1010
00:00
V
26 °C 10 km+ - 150° 150° 10 kt METAR AYPY 131400Z 15010KT 9999 FEW015 SCT040 26/24 Q1011

13 de agosto de 2022

Hora Código Clima Temp. Visibilidade Tecto Vento METAR/SPECI
23:00
V
26 °C 10 km+ 4.000 ft 160° 160° 10 kt METAR AYPY 131300Z 16010KT 9999 FEW015 BKN040 26/24 Q1011
22:00
V
26 °C 10 km+ 4.000 ft 160° 160° 10 kt METAR AYPY 131200Z 16010KT 9999 FEW015 BKN040 26/24 Q1011
20:00
V
26 °C 10 km+ 3.000 ft 150° 150° 10 kt METAR AYPY 131000Z 15010KT 9999 SCT015 BKN030 26/24 Q1010
19:00
M
26 °C 10 km+ 1.500 ft 160° 160° 10 - 20 kt METAR AYPY 130900Z 16010G20KT 9999 FUHZ BKN015 OVC030 26/24 Q1009
18:00
V
27 °C 10 km+ - 160° 160° 10 - 20 kt METAR AYPY 130800Z 16010G20KT 9999 FUHZ FEW015 SCT025 27/24 Q1009
17:00
V
29 °C 10 km+ - 180° 180° 16 kt METAR AYPY 130700Z 18016KT 9999 FUHZ SCT025 29/24 Q1008
16:00
V
30 °C 10 km+ - 160° 160° 16 kt METAR AYPY 130600Z 16016KT 9999 SCT025 30/23 Q1008
15:00
V
30 °C 10 km+ - 180° 180° 16 kt METAR AYPY 130500Z 18016KT 9999 FEW020 SCT035 30/23 Q1008
14:00
V
29 °C 10 km+ 3.500 ft 180° 180° 16 kt METAR AYPY 130400Z 18016KT 9999 FEW020 SCT025 BKN035 29/23 Q1009
13:00
V
30 °C 10 km+ 5.000 ft 230° 230° 12 kt METAR AYPY 130300Z 23012KT 9999 SCT035 BKN050 30/23 Q1010
12:00
V
30 °C 10 km+ 3.500 ft Var Var 6 kt METAR AYPY 130200Z VRB06KT 9999 SCT020 BKN035 30/24 Q1010
11:00
V
30 °C 10 km+ 3.000 ft Var Var 4 kt METAR AYPY 130100Z VRB04KT 9999 SCT015 BKN030 30/23 Q1011
10:00
V
28 °C 10 km+ 4.000 ft Var Var 2 kt METAR AYPY 130000Z VRB02KT 9999 BKN040 28/23 Q1012
09:00
V
27 °C 10 km+ 4.000 ft Var Var 4 kt METAR AYPY 122300Z VRB04KT 9999 BKN040 27/23 Q1012
08:00
L
23 °C 0 m - Var Var 3 kt METAR AYPY 122200Z VRB03KT 7KM FUHZ FEW010 SCT025 23/22 Q1011
07:00
V
23 °C 10 km+ - Var Var 3 kt METAR AYPY 122100Z VRB03KT 9999 FUHZ FEW010 SCT025 23/22 Q1010
06:00
V
23 °C 10 km+ - Var Var 2 kt METAR AYPY 122000Z VRB02KT 9999 FEW025 SCT050 23/22 Q1010
05:00
V
24 °C 10 km+ - Var Var 3 kt METAR AYPY 121900Z VRB03KT 9999 SCT020 SCT040 24/23 Q1009
04:00
V
24 °C 10 km+ - Var Var 3 kt METAR AYPY 121800Z VRB03KT 9999 SCT035 SCT050 24/23 Q1009
03:00
V
24 °C 10 km+ - Var Var 2 kt METAR AYPY 121700Z VRB02KT 9999 SCT035 SCT050 24/23 Q1009
02:00
V
24 °C 10 km+ - Var Var 2 kt METAR AYPY 121600Z VRB02KT 9999 FEW010 SCT050 SCT090 24/23 Q1009
01:00
V
24 °C 10 km+ - 140° 140° 5 kt METAR AYPY 121500Z 14005KT 9999 FEW010 SCT050 SCT090 24/23 Q1010
00:00
V
25 °C 10 km+ - Var Var 3 kt METAR AYPY 121400Z VRB03KT 9999 FEW050 25/23 Q1011

12 de agosto de 2022

Hora Código Clima Temp. Visibilidade Tecto Vento METAR/SPECI
23:00
V
25 °C 10 km+ - Var Var 2 kt METAR AYPY 121300Z VRB02KT 9999 FEW050 25/23 Q1011
22:00
V
25 °C 10 km+ - 170° 170° 5 kt METAR AYPY 121200Z 17005KT 9999 FEW050 25/22 Q1011
21:00
V
26 °C 10 km+ - 150° 150° 10 kt METAR AYPY 121100Z 15010KT 9999 SCT050 26/23 Q1011
20:00
V
26 °C 10 km+ 5.000 ft 160° 160° 10 kt METAR AYPY 121000Z 16010KT 9999 BKN050 26/23 Q1010
19:00
V
26 °C 10 km+ 5.000 ft 170° 170° 10 - 20 kt METAR AYPY 120900Z 17010G20KT 9999 FEW025 BKN050 26/23 Q1009
18:00
V
26 °C 10 km+ 5.000 ft 160° 160° 10 - 22 kt METAR AYPY 120800Z 16010G22KT 9999 FUHZ BKN050 26/23 Q1009
17:00
V
27 °C 10 km+ 5.000 ft 160° 160° 10 - 22 kt METAR AYPY 120700Z 16010G22KT 9999 FUHZ FEW030 BKN050 27/23 Q1008
16:00
V
28 °C 10 km+ - 160° 160° 11 - 25 kt METAR AYPY 120600Z 16011G25KT 9999 FUHZ FEW015 SCT030 SCT050 28/24 Q1008
15:00
V
29 °C 10 km+ - 160° 160° 13 - 25 kt METAR AYPY 120500Z 16013G25KT 9999 FUHZ SCT025 29/24 Q1008
14:00
V
30 °C 10 km+ - 160° 160° 10 - 20 kt METAR AYPY 120400Z 16010G20KT 9999 FUHZ SCT035 30/24 Q1009
13:00
V
32 °C 10 km+ - 180° 180° 17 kt METAR AYPY 120300Z 18017KT 9999 FUHZ SCT030 32/24 Q1009
12:00
V
31 °C 10 km+ - 160° 160° 15 kt METAR AYPY 120200Z 16015KT 9999 HZ FEW030 SCT040 31/23 Q1010
11:00
V
30 °C 10 km+ - 160° 160° 10 - 15 kt METAR AYPY 120100Z 16010G15KT 9999 HZ FEW030 SCT050 30/22 Q1011
10:00
V
29 °C 10 km+ - Var Var 4 kt METAR AYPY 120000Z VRB04KT 9999 HZ FEW030 29/22 Q1012
09:00
V
27 °C 10 km+ - Var Var 3 kt METAR AYPY 112300Z VRB03KT 9999 FUHZ FEW030 27/21 Q1012
08:00
V
25 °C 10 km+ 5.000 ft Var Var 4 kt METAR AYPY 112200Z VRB04KT 9999 HZ FEW030 BKN050 25/22 Q1011
07:00
V
24 °C 10 km+ 7.000 ft 150° 150° 8 kt METAR AYPY 112100Z 15008KT 9999 HZ FEW030 BKN070 24/21 Q1011
06:00
V
24 °C 10 km+ 3.500 ft 140° 140° 5 kt METAR AYPY 112000Z 14005KT 9999 BKN035 OVC070 24/21 Q1010
05:00
V
23 °C 10 km+ - 140° 140° 6 kt METAR AYPY 111900Z 14006KT 9999 SCT035 SCT070 23/21 Q1010
04:00
V
23 °C 10 km+ - 140° 140° 4 kt METAR AYPY 111800Z 14004KT 9999 SCT070 23/21 Q1010
03:00
V
23 °C 10 km+ - 180° 180° 4 kt METAR AYPY 111700Z 18004KT 9999 SCT060 23/21 Q1010
02:00
V
23 °C 10 km+ - 150° 150° 5 kt METAR AYPY 111600Z 15005KT 9999 FEW050 23/21 Q1010
01:00
V
24 °C 10 km+ - 120° 120° 6 kt METAR AYPY 111500Z 12006KT 9999 FEW050 24/21 Q1010
Dados mais antigos

Nós e terceiros acompanhamos seu comportamento na internet em nosso site com cookies. Se você continuar, nós assumimos que você concorda com nossa política de cookies. Saiba mais